الصفحة الرئيسية
METAR-TAF:

METAR-TAF

مطار :

سنغافورة, سنغافورة

دائرة عرض: 01-22N, خط طول: 103-55E, ارتفاع: 18 متر

مراقبة الطقس الحالي

تاريخ ووقت الإصدار 20 دقيقة قبل الساعة 05:05UTC
ريح 6 عقدة من الجنوب الشرقي
درجة الحرارة 30°درجة مئوية
الرطوبة 66%
ضغط 1010 hPa
الرؤية 10 كم أو أكثر
غيوم قليلة على ارتفاع 1800 قدم, مزنة ركامية.
غيوم قليلة على ارتفاع 2000 قدم, مزن ركامية عمودية.
غيوم مفككة على ارتفاع 15000 قدم
عاصفة رعدية

METAR: WSAP 100505Z 13006KT 9999 TS FEW018CB FEW020TCU BKN150 30/23 Q1010

زمن: 13:25 (05:25 UTC)

توقعات

تاريخ ووقت الإصدار 6ساعات و 25 دقيقة قبل الساعة 23:00UTC
التوقعات صالحة من10 الساعة 00 UTC إلى 11 الساعة 06 UTC
ريح 7 عقدة من الجنوب الشرقي
الرؤية 10 كم أو أكثر
غيوم قليلة على ارتفاع 1500 قدم
غيوم متفرقة على ارتفاع 2000 قدم
مؤقت
من 10 الساعة 06 UTC إلى 10 الساعة 09 UTC
الرؤية: 3000 متر
غيوم قليلة على ارتفاع 1200 قدم, مزنة ركامية.
غيوم مفككة على ارتفاع 1500 قدم
عاصفة رعدية, مطر

TAF: WSAP 092300Z 1000/1106 13007KT 9999 FEW015 SCT020 TEMPO 1006/1009 3000 TSRA FEW012CB BKN015

أرصاد الطقس والتوقعات من أكثر من 4000 مطار (تقارير الطقس للمطار METAR والتنبؤ بالطقس بالمطارTAF).

المحطات المتاحة هي النقط الصفراء والحمراء على الخريطة.

حرك المؤشر فوق النقطة لمعرفة اسم المحطة.

ثم انقر لمعرفة أرصاد وتوقعات الطقس.

لتغيير الخارطة: اضغط على الأزرار الخضراء مع رمز الصليب الأسود للتكبير. على الزر الأخضر مع شرطة للتصغير، أو على الأسهم الخضراء للخرائط المجاورة.


METAR-TAF: